M I D A S
Marine Information and Data Acquisition System
Tripno 1763 of the Zeeleeuw from 2009-07-13 06:44:58 to 2009-07-13 15:15:57
Back to CruiseResearch ActivitiesStationsMapUnderway DataData graphs

EquipmentUnitsComment
TimeDGPSUTC
LatitudeDGPSDM.mWGS84
LongitudeDGPSDM.mWGS84
TemperatureSBE03/SBE38deg celciusITS90
ConductivitySBE21S/mITS90
SalinitySBE21 Practical Salinity Units
ChlorophylAChelsea fluorimeterg/lCalibrated in Aceton
Missing or incorrect values are displayed as -999
Sea surface data collected by the RV Zeeleeuw from 2009-07-13 06:47:44 to 2009-07-13 15:25:07
Time Latitude Longitude Temperature Conductivity Salinity ChlorophylA
2009-07-13 06:48:49 51°13.675 2°55.905 21.8079 0.025537 0.132671 2.76043
2009-07-13 06:49:49 51°13.691 2°55.818 21.8136 0.025537 0.132694 2.76043
2009-07-13 06:50:48 51°13.694 2°55.75 20.5753 4.108074 28.581715 7.531325
2009-07-13 06:51:46 51°13.701 2°55.736 20.3672 4.08298 28.828759 2.93455
2009-07-13 06:52:45 51°13.74 2°55.728 20.3137 4.062237 28.769528 3.073846
2009-07-13 06:53:45 51°13.823 2°55.64 20.2272 4.091592 29.020507 3.247966
2009-07-13 06:54:44 51°13.948 2°55.536 19.9896 4.11929 29.291395 3.839975
2009-07-13 06:55:45 51°14.09 2°55.432 19.708 4.205923 30.214954 5.198113
2009-07-13 06:56:45 51°14.226 2°55.308 19.5482 4.263307 30.845596 5.894594
2009-07-13 06:57:45 51°14.332 2°55.119 19.4889 4.283855 31.107004 6.242835
2009-07-13 06:58:45 51°14.441 2°54.912 19.4746 4.305753 31.32756 6.834844
2009-07-13 06:59:44 51°14.585 2°54.749 19.4364 4.306479 31.340451 7.078612
2009-07-13 07:00:45 51°14.748 2°54.588 19.3466 4.333567 31.596479 8.645695
2009-07-13 07:01:45 51°14.913 2°54.425 19.2505 4.410583 32.300314 11.153027
2009-07-13 07:02:45 51°15.076 2°54.267 19.1564 4.47505 32.911714 13.137998
2009-07-13 07:03:45 51°15.237 2°54.105 19.0577 4.507236 33.232114 13.695182
2009-07-13 07:04:45 51°15.399 2°53.948 19.008 4.541293 33.590306 14.600608
2009-07-13 07:05:45 51°15.56 2°53.789 18.9619 4.551988 33.722102 15.227441
2009-07-13 07:06:45 51°15.724 2°53.624 18.9509 4.559776 33.81735 16.16769
2009-07-13 07:07:45 51°15.893 2°53.461 18.9426 4.563203 33.857326 16.481107
2009-07-13 07:08:45 51°16.062 2°53.297 18.9634 4.564968 33.868153 17.003468
2009-07-13 07:09:45 51°16.237 2°53.143 18.9862 4.569641 33.889049 17.491004
2009-07-13 07:10:45 51°16.415 2°53 18.9982 4.575559 33.922198 18.117837
2009-07-13 07:11:45 51°16.596 2°52.87 18.9886 4.583347 33.982387 18.500902
2009-07-13 07:12:45 51°16.779 2°52.746 18.9496 4.590824 34.05992 18.500902
2009-07-13 07:13:45 51°16.963 2°52.631 18.9142 4.595601 34.132506 18.048189
2009-07-13 07:14:45 51°17.155 2°52.562 18.8644 4.598717 34.188171 17.45618
2009-07-13 07:15:45 51°17.347 2°52.509 18.8273 4.600795 34.24437 16.690051
2009-07-13 07:16:45 51°17.541 2°52.459 18.829 4.600691 34.26169 16.237338
2009-07-13 07:17:45 51°17.736 2°52.418 18.8125 4.599445 34.253241 16.098042
2009-07-13 07:18:45 51°17.932 2°52.379 18.7832 4.597576 34.25649 15.714978
2009-07-13 07:19:45 51°18.129 2°52.367 18.7399 4.597681 34.284692 15.540857
2009-07-13 07:20:45 51°18.325 2°52.358 18.6921 4.595293 34.301238 15.227441
2009-07-13 07:21:45 51°18.521 2°52.368 18.6527 4.587298 34.274152 15.018497
2009-07-13 07:22:45 51°18.709 2°52.453 18.6242 4.580549 34.245712 15.018497
2009-07-13 07:23:45 51°18.897 2°52.552 18.6066 4.575461 34.222023 15.018497
2009-07-13 07:24:45 51°19.086 2°52.648 18.6025 4.572242 34.208107 14.844376
2009-07-13 07:25:45 51°19.275 2°52.74 18.5951 4.571619 34.209416 14.70508
2009-07-13 07:26:45 51°19.465 2°52.828 18.6019 4.572346 34.216163 14.670256
2009-07-13 07:27:45 51°19.653 2°52.914 18.6148 4.575149 34.233131 14.670256
2009-07-13 07:28:45 51°19.841 2°52.998 18.6327 4.579095 34.255746 14.8792
2009-07-13 07:29:45 51°20.028 2°53.089 18.6745 4.583456 34.273988 15.157793
2009-07-13 07:30:45 51°20.215 2°53.186 18.7318 4.574214 34.158147 15.540857
2009-07-13 07:31:45 51°20.402 2°53.282 18.7666 4.562168 34.015309 15.680154
2009-07-13 07:32:45 51°20.587 2°53.38 18.8033 4.55656 33.942031 15.923922
2009-07-13 07:33:45 51°20.772 2°53.48 18.8384 4.548357 33.843398 16.272162
2009-07-13 07:34:45 51°20.956 2°53.576 18.8645 4.539427 33.74084 16.515931
2009-07-13 07:35:45 51°21.14 2°53.672 18.8884 4.532885 33.667265 16.620403
2009-07-13 07:36:45 51°21.323 2°53.766 18.9132 4.52842 33.609773 16.724875
2009-07-13 07:37:45 51°21.508 2°53.859 18.932 4.524059 33.555762 16.864171
2009-07-13 07:38:45 51°21.689 2°53.969 18.946 4.519698 33.503083 16.864171
2009-07-13 07:39:45 51°21.865 2°54.102 18.9531 4.51378 33.446397 17.10794
2009-07-13 07:40:45 51°22.041 2°54.232 18.9539 4.50537 33.370984 17.316884
2009-07-13 07:41:45 51°22.215 2°54.372 18.9573 4.496752 33.298932 17.421356
2009-07-13 07:42:45 51°22.38 2°54.533 18.9556 4.489174 33.234881 17.595476
2009-07-13 07:43:45 51°22.538 2°54.711 18.9485 4.483567 33.19095 17.839245
2009-07-13 07:44:45 51°22.702 2°54.878 18.9476 4.478584 33.151556 17.908893
2009-07-13 07:45:45 51°22.868 2°55.038 18.9464 4.472459 33.102084 17.769597
2009-07-13 07:46:45 51°23.036 2°55.2 18.947 4.468514 33.069421 17.630301
2009-07-13 07:47:45 51°23.203 2°55.364 18.9476 4.466541 33.051218 17.351708
2009-07-13 07:48:45 51°23.369 2°55.53 18.949 4.46405 33.031842 17.177588
2009-07-13 07:49:45 51°23.537 2°55.692 18.9423 4.461766 33.015432 17.177588
2009-07-13 07:50:45 51°23.705 2°55.853 18.9424 4.461143 33.013394 17.073116
2009-07-13 07:51:45 51°23.873 2°56.013 18.9435 4.459794 32.998482 17.073116
2009-07-13 07:52:45 51°24.043 2°56.176 18.9416 4.456887 32.975671 17.177588
2009-07-13 07:53:45 51°24.212 2°56.337 18.9458 4.454084 32.952475 17.177588
2009-07-13 07:54:45 51°24.381 2°56.501 18.9421 4.453253 32.943735 17.28206
2009-07-13 07:55:45 51°24.547 2°56.665 18.9411 4.453357 32.945839 17.142764
2009-07-13 07:56:45 51°24.715 2°56.83 18.9256 4.455122 32.964179 17.142764
2009-07-13 07:57:45 51°24.882 2°56.989 18.9084 4.456057 32.986246 16.864171
2009-07-13 07:58:45 51°25.049 2°57.147 18.8976 4.454707 32.985672 16.446283
2009-07-13 07:59:45 51°25.214 2°57.307 18.8777 4.452735 32.978067 16.132866
2009-07-13 08:00:45 51°25.381 2°57.47 18.8768 4.450659 32.972094 15.923922
2009-07-13 08:01:45 51°25.548 2°57.626 18.8718 4.451178 32.977019 15.81945
2009-07-13 08:02:45 51°25.716 2°57.783 18.8734 4.451905 32.989284 15.680154
2009-07-13 08:03:45 51°25.881 2°57.939 18.8869 4.452112 32.986635 15.610505
2009-07-13 08:04:45 51°26.046 2°58.093 18.9015 4.447233 32.935606 15.854274
2009-07-13 08:05:45 51°26.206 2°58.237 18.918 4.442561 32.883852 15.958746
2009-07-13 08:06:45 51°26.3 2°58.318 18.9297 4.436644 32.824323 15.854274
2009-07-13 08:07:45 51°26.364 2°58.37 18.9359 4.432388 32.781057 15.749802
2009-07-13 08:08:45 51°26.419 2°58.409 18.9396 4.430312 32.759554 15.610505
2009-07-13 08:09:45 51°26.471 2°58.445 18.9405 4.428962 32.745303 15.714978
2009-07-13 08:10:45 51°26.522 2°58.479 18.9466 4.427301 32.729718 15.784626
2009-07-13 08:11:45 51°26.571 2°58.514 18.9509 4.425225 32.710085 15.81945
2009-07-13 08:12:45 51°26.621 2°58.549 18.9567 4.423564 32.692036 15.854274
2009-07-13 08:13:45 51°26.67 2°58.583 18.9567 4.421073 32.667749 15.81945
2009-07-13 08:14:45 51°26.718 2°58.616 18.9619 4.419516 32.653036 15.889098
2009-07-13 08:15:45 51°26.766 2°58.65 18.9669 4.417958 32.636477 15.889098
2009-07-13 08:16:45 51°26.815 2°58.684 18.9678 4.41692 32.624209 16.028394
2009-07-13 08:17:46 51°26.865 2°58.72 18.9679 4.415052 32.61001 16.098042
2009-07-13 08:18:45 51°26.913 2°58.755 18.9699 4.414014 32.598978 16.237338
2009-07-13 08:19:45 51°26.963 2°58.783 18.9701 4.413183 32.589661 16.16769
2009-07-13 08:20:45 51°27.01 2°58.784 18.975 4.412457 32.582432 16.16769
2009-07-13 08:21:45 51°27.048 2°58.776 18.9751 4.411626 32.574348 16.202514
2009-07-13 08:22:45 51°27.08 2°58.765 18.9754 4.410692 32.56725 16.237338
2009-07-13 08:23:45 51°27.107 2°58.753 18.9751 4.410173 32.561123 16.202514
2009-07-13 08:24:45 51°27.13 2°58.741 18.9763 4.409654 32.557453 16.202514
2009-07-13 08:25:45 51°27.149 2°58.734 18.976 4.409343 32.554883 16.237338
2009-07-13 08:26:45 51°27.166 2°58.731 18.9787 4.408097 32.544602 16.237338
2009-07-13 08:27:45 51°27.181 2°58.731 18.9752 4.407993 32.543745 16.028394
2009-07-13 08:28:45 51°27.194 2°58.733 18.9745 4.408201 32.545459 15.99357
2009-07-13 08:29:45 51°27.207 2°58.736 18.9756 4.407786 32.542646 15.889098
2009-07-13 08:30:45 51°27.218 2°58.74 18.9758 4.407578 32.541546 15.854274
2009-07-13 08:31:45 51°27.228 2°58.742 18.9763 4.40737 32.539219 15.81945
2009-07-13 08:32:45 51°27.235 2°58.745 18.9775 4.407267 32.537134 15.784626
2009-07-13 08:33:45 51°27.243 2°58.747 18.9796 4.407163 32.53505 15.784626
2009-07-13 08:34:45 51°27.249 2°58.749 18.9811 4.407059 32.532352 15.784626
2009-07-13 08:35:45 51°27.257 2°58.752 18.984 4.406955 32.529655 15.81945
2009-07-13 08:36:45 51°27.265 2°58.752 18.985 4.406851 32.527571 15.854274
2009-07-13 08:37:46 51°27.273 2°58.752 18.9865 4.40654 32.524388 15.958746
2009-07-13 08:38:45 51°27.295 2°58.746 18.9884 4.406436 32.522305 15.923922
2009-07-13 08:39:45 51°27.369 2°58.761 18.9938 4.406228 32.518139 15.923922
2009-07-13 08:40:45 51°27.401 2°58.881 18.9959 4.406332 32.516542 16.341811
2009-07-13 08:41:45 51°27.399 2°59.008 18.9959 4.405917 32.510665 16.481107
2009-07-13 08:42:45 51°27.463 2°59.116 19.0004 4.405709 32.507727 16.585579
2009-07-13 08:43:45 51°27.501 2°59.258 19.0054 4.404048 32.490352 16.690051
2009-07-13 08:44:45 51°27.5 2°59.404 19.0197 4.401557 32.463077 16.829347
2009-07-13 08:45:45 51°27.482 2°59.529 19.0271 4.397924 32.423351 17.003468
2009-07-13 08:46:45 51°27.466 2°59.653 19.0397 4.397301 32.412723 17.10794
2009-07-13 08:47:45 51°27.438 2°59.768 19.053 4.39263 32.366317 17.247236
2009-07-13 08:48:45 51°27.425 2°59.893 19.0592 4.388685 32.325315 17.316884
2009-07-13 08:49:46 51°27.405 3°0.007 19.0628 4.385883 32.295559 17.421356
2009-07-13 08:50:45 51°27.391 3°0.074 19.0686 4.382769 32.266898 17.491004
2009-07-13 08:51:45 51°27.384 3°0.104 19.0703 4.381627 32.253863 17.560652
2009-07-13 08:52:45 51°27.386 3°0.103 19.0731 4.379447 32.233507 17.595476
2009-07-13 08:53:47 51°27.414 3°0.063 19.076 4.377786 32.217424 18.187485
2009-07-13 08:54:46 51°27.436 3°0.012 19.08 4.375918 32.19782 18.117837
2009-07-13 08:55:45 51°27.449 2°59.978 19.0845 4.374569 32.186121 18.117837
2009-07-13 08:56:45 51°27.458 2°59.954 19.0817 4.374154 32.180892 17.943717
2009-07-13 08:57:45 51°27.467 2°59.936 19.0843 4.373635 32.178441 17.943717
2009-07-13 08:58:46 51°27.476 2°59.919 19.084 4.373738 32.176269 17.874069
2009-07-13 08:59:45 51°27.483 2°59.936 19.0812 4.373427 32.173709 17.839245
2009-07-13 09:00:45 51°27.494 3°0.032 19.0826 4.373012 32.171506 17.769597
2009-07-13 09:01:45 51°27.516 3°0.18 19.0872 4.3727 32.168946 17.804421
2009-07-13 09:02:45 51°27.585 3°0.281 19.0869 4.372285 32.164928 18.048189
2009-07-13 09:03:46 51°27.634 3°0.387 19.0828 4.37187 32.16212 18.048189
2009-07-13 09:04:45 51°27.672 3°0.478 19.0859 4.371559 32.158351 18.152661
2009-07-13 09:05:45 51°27.634 3°0.534 19.0827 4.371247 32.153978 18.500902
2009-07-13 09:06:45 51°27.567 3°0.478 19.0779 4.370521 32.14861 18.849142
2009-07-13 09:07:45 51°27.485 3°0.369 19.0808 4.369172 32.142959 18.953615
2009-07-13 09:08:45 51°27.418 3°0.227 19.0781 4.368653 32.138089 19.058087
2009-07-13 09:09:46 51°27.353 3°0.068 19.0788 4.367718 32.131618 18.849142
2009-07-13 09:10:45 51°27.287 2°59.916 19.0823 4.367615 32.128953 18.74467
2009-07-13 09:11:45 51°27.196 2°59.837 19.0861 4.367615 32.127744 18.74467
2009-07-13 09:12:45 51°27.112 2°59.873 19.0911 4.36803 32.127532 18.640198
2009-07-13 09:13:45 51°27.097 2°59.937 19.19 4.367822 32.119788 22.644964
2009-07-13 09:14:46 51°27.12 2°59.974 19.1006 4.369067 32.119759 18.675022
2009-07-13 09:15:45 51°27.154 3°0.004 19.1035 4.367926 32.114604 18.466078
2009-07-13 09:16:45 51°27.196 3°0.03 19.1083 4.367614 32.111443 18.361606
2009-07-13 09:17:45 51°27.242 3°0.051 19.1068 4.36751 32.106367 18.222309
2009-07-13 09:18:45 51°27.286 3°0.078 19.1094 4.367614 32.106013 18.222309
2009-07-13 09:19:45 51°27.329 3°0.111 19.1124 4.367718 32.105056 18.152661
2009-07-13 09:20:45 51°27.371 3°0.145 19.1127 4.368133 32.10545 18.187485
2009-07-13 09:21:46 51°27.416 3°0.194 19.1122 4.368133 32.10545 18.152661
2009-07-13 09:22:45 51°27.456 3°0.261 19.1074 4.367822 32.106512 18.326782
2009-07-13 09:23:45 51°27.5 3°0.332 19.1035 4.367614 32.10722 18.466078
2009-07-13 09:24:45 51°27.544 3°0.401 19.1032 4.367199 32.105016 18.605374
2009-07-13 09:25:46 51°27.59 3°0.469 19.1025 4.366991 32.102104 18.466078
2009-07-13 09:26:45 51°27.636 3°0.534 19.1049 4.366265 32.097343 18.361606
2009-07-13 09:27:45 51°27.689 3°0.586 19.1075 4.365954 32.092976 18.361606
2009-07-13 09:28:45 51°27.748 3°0.575 19.1078 4.365331 32.087862 18.466078
2009-07-13 09:29:45 51°27.792 3°0.506 19.1104 4.364916 32.085055 18.466078
2009-07-13 09:30:46 51°27.813 3°0.408 19.1113 4.364916 32.083246 18.431254
2009-07-13 09:31:45 51°27.796 3°0.316 19.1182 4.365123 32.084348 18.605374
2009-07-13 09:32:45 51°27.747 3°0.254 19.1124 4.36585 32.088507 18.675022
2009-07-13 09:33:45 51°27.685 3°0.227 19.1104 4.366369 32.093974 18.849142
2009-07-13 09:34:46 51°27.622 3°0.186 19.1058 4.367303 32.099837 18.779494
2009-07-13 09:35:45 51°27.569 3°0.125 19.1077 4.366991 32.100898 18.74467
2009-07-13 09:36:45 51°27.521 3°0.05 19.1161 4.367095 32.100545 18.675022
2009-07-13 09:37:46 51°27.47 2°59.981 19.1103 4.367095 32.101148 18.605374
2009-07-13 09:38:45 51°27.418 2°59.923 19.1152 4.367303 32.101043 18.640198
2009-07-13 09:39:45 51°27.37 2°59.859 19.1168 4.367407 32.101293 18.57055
2009-07-13 09:40:45 51°27.323 2°59.788 19.1127 4.36751 32.100939 18.500902
2009-07-13 09:41:46 51°27.274 2°59.718 19.1132 4.367614 32.101188 18.640198
2009-07-13 09:42:45 51°27.225 2°59.649 19.1121 4.367718 32.101438 18.535726
2009-07-13 09:43:45 51°27.176 2°59.592 19.1122 4.367822 32.10229 18.39643
2009-07-13 09:44:45 51°27.122 2°59.577 19.1073 4.368029 32.104598 18.39643
2009-07-13 09:45:45 51°27.088 2°59.637 19.1117 4.367822 32.105909 18.431254
2009-07-13 09:46:45 51°27.113 2°59.707 19.1111 4.368133 32.106657 18.640198
2009-07-13 09:47:45 51°27.162 2°59.772 19.1206 4.368029 32.103995 18.709846
2009-07-13 09:48:46 51°27.213 2°59.848 19.1238 4.367822 32.097467 18.675022
2009-07-13 09:49:45 51°27.256 2°59.935 19.1275 4.367821 32.09144 18.675022
2009-07-13 09:50:46 51°27.307 3°0.018 19.1338 4.367095 32.084271 18.709846
2009-07-13 09:51:45 51°27.352 3°0.101 19.1358 4.366576 32.076398 18.779494
2009-07-13 09:52:45 51°27.399 3°0.182 19.1368 4.365849 32.068628 18.779494
2009-07-13 09:53:46 51°27.448 3°0.265 19.142 4.364915 32.059758 18.709846
2009-07-13 09:54:46 51°27.492 3°0.352 19.1441 4.364707 32.053843 18.675022
2009-07-13 09:55:46 51°27.532 3°0.441 19.1434 4.363773 32.048585 18.675022
2009-07-13 09:56:46 51°27.572 3°0.529 19.1453 4.363358 32.045178 18.709846
2009-07-13 09:57:46 51°27.614 3°0.615 19.1472 4.363254 32.041921 18.779494
2009-07-13 09:58:45 51°27.671 3°0.638 19.1398 4.362943 32.041771 18.779494
2009-07-13 09:59:46 51°27.719 3°0.566 19.1347 4.362943 32.042373 18.849142
2009-07-13 10:00:45 51°27.728 3°0.45 19.1318 4.362528 32.043777 18.883966
2009-07-13 10:01:46 51°27.685 3°0.341 19.1319 4.363047 32.048036 18.849142
2009-07-13 10:02:46 51°27.612 3°0.295 19.1279 4.363566 32.052897 18.918791
2009-07-13 10:03:46 51°27.547 3°0.271 19.1239 4.363981 32.059916 18.849142
2009-07-13 10:04:46 51°27.493 3°0.228 19.1247 4.364085 32.062574 18.709846
2009-07-13 10:05:45 51°27.45 3°0.165 19.1258 4.363981 32.06112 18.74467
2009-07-13 10:06:46 51°27.413 3°0.094 19.1326 4.364085 32.060166 18.709846
2009-07-13 10:07:45 51°27.378 3°0.023 19.1329 4.364396 32.059712 18.675022
2009-07-13 10:08:46 51°27.342 2°59.946 19.1341 4.364292 32.058258 18.500902
2009-07-13 10:09:46 51°27.3 2°59.878 19.1408 4.364396 32.056101 18.466078
2009-07-13 10:10:46 51°27.258 2°59.808 19.1383 4.3645 32.055148 18.500902
2009-07-13 10:11:46 51°27.219 2°59.733 19.1445 4.3645 32.053343 18.605374
2009-07-13 10:12:46 51°27.179 2°59.655 19.1476 4.3645 32.051539 18.500902
2009-07-13 10:13:46 51°27.137 2°59.579 19.149 4.3645 32.049133 18.431254
2009-07-13 10:14:46 51°27.091 2°59.515 19.1539 4.364811 32.048681 18.466078
2009-07-13 10:15:46 51°27.04 2°59.496 19.1554 4.365226 32.047877 18.466078
2009-07-13 10:16:46 51°26.99 2°59.549 19.1551 4.365019 32.046776 18.431254
2009-07-13 10:17:46 51°26.998 2°59.638 19.1593 4.364811 32.045674 18.57055
2009-07-13 10:18:46 51°27.047 2°59.706 19.1613 4.3645 32.039514 18.466078
2009-07-13 10:19:46 51°27.104 2°59.761 19.1675 4.364188 32.035157 18.535726
2009-07-13 10:20:46 51°27.155 2°59.815 19.1674 4.363981 32.030451 18.466078
2009-07-13 10:21:46 51°27.204 2°59.868 19.1685 4.364084 32.0295 18.466078
2009-07-13 10:22:46 51°27.25 2°59.93 19.1677 4.364084 32.0301 18.500902
2009-07-13 10:23:46 51°27.292 2°59.999 19.1604 4.3645 32.034106 18.500902
2009-07-13 10:24:46 51°27.338 3°0.064 19.1581 4.364396 32.038662 18.57055
2009-07-13 10:25:46 51°27.377 3°0.138 19.1519 4.3645 32.040716 18.57055
2009-07-13 10:26:46 51°27.417 3°0.212 19.1565 4.364707 32.045424 18.605374
2009-07-13 10:27:46 51°27.457 3°0.285 19.1537 4.365122 32.048228 18.605374
2009-07-13 10:28:46 51°27.498 3°0.357 19.1533 4.365849 32.052986 18.640198
2009-07-13 10:29:46 51°27.534 3°0.433 19.1584 4.366368 32.057844 18.709846
2009-07-13 10:30:46 51°27.553 3°0.527 19.153 4.367406 32.065156 18.779494
2009-07-13 10:31:46 51°27.569 3°0.623 19.1574 4.368444 32.071865 18.918791
2009-07-13 10:32:46 51°27.588 3°0.716 19.1467 4.370312 32.088396 19.023263
2009-07-13 10:33:46 51°27.607 3°0.81 19.1431 4.371454 32.105593 19.127735
2009-07-13 10:34:46 51°27.628 3°0.903 19.1419 4.372699 32.118225 19.162559
2009-07-13 10:35:46 51°27.649 3°0.993 19.1471 4.373945 32.127845 19.267031
2009-07-13 10:36:46 51°27.689 3°1.032 19.1473 4.375294 32.139523 19.267031
2009-07-13 10:37:46 51°27.733 3°0.967 19.147 4.376332 32.14563 19.371503
2009-07-13 10:38:46 51°27.75 3°0.848 19.1461 4.377474 32.155002 19.371503
2009-07-13 10:39:46 51°27.74 3°0.707 19.1432 4.378201 32.162777 19.406327
2009-07-13 10:40:46 51°27.702 3°0.564 19.142 4.379239 32.173713 19.371503
2009-07-13 10:41:45 51°27.648 3°0.427 19.1383 4.379861 32.177618 19.267031
2009-07-13 10:42:46 51°27.58 3°0.294 19.1303 4.380277 32.184651 19.267031
2009-07-13 10:43:46 51°27.503 3°0.174 19.1273 4.380069 32.18778 19.336679
2009-07-13 10:44:46 51°27.421 3°0.062 19.1314 4.380173 32.189236 19.510799
2009-07-13 10:45:46 51°27.339 2°59.951 19.1252 4.380173 32.189236 19.615272
2009-07-13 10:46:46 51°27.258 2°59.838 19.1165 4.379862 32.19091 19.68492
2009-07-13 10:47:46 51°27.181 2°59.718 19.097 4.379966 32.200228 19.68492
2009-07-13 10:48:45 51°27.124 2°59.582 19.1161 4.379343 32.200555 19.615272
2009-07-13 10:49:45 51°27.078 2°59.441 19.1171 4.378097 32.180043 19.371503
2009-07-13 10:50:46 51°26.998 2°59.365 19.1089 4.37789 32.180151 19.475975
2009-07-13 10:51:45 51°26.925 2°59.391 19.0844 4.379239 32.199097 19.545624
2009-07-13 10:52:45 51°26.901 2°59.464 19.0784 4.379655 32.218247 19.545624
2009-07-13 10:53:45 51°26.93 2°59.507 19.1009 4.378305 32.206549 19.406327
2009-07-13 10:54:45 51°26.971 2°59.548 19.1215 4.37654 32.178133 19.232207
2009-07-13 10:55:45 51°27.014 2°59.601 19.1374 4.375502 32.155108 19.058087
2009-07-13 10:56:45 51°27.055 2°59.658 19.1467 4.375294 32.143746 19.058087
2009-07-13 10:57:45 51°27.093 2°59.721 19.1391 4.376021 32.144281 19.092911
2009-07-13 10:58:46 51°27.133 2°59.782 19.1456 4.376851 32.155321 19.092911
2009-07-13 10:59:46 51°27.176 2°59.837 19.1443 4.377682 32.160327 19.127735
2009-07-13 11:00:45 51°27.217 2°59.892 19.143 4.378823 32.167285 19.092911
2009-07-13 11:01:46 51°27.26 2°59.949 19.1503 4.379757 32.174954 19.092911
2009-07-13 11:02:46 51°27.3 3°0.005 19.1515 4.380692 32.179 19.058087
2009-07-13 11:03:46 51°27.338 3°0.065 19.1475 4.381211 32.18326 18.988439
2009-07-13 11:04:45 51°27.376 3°0.123 19.1576 4.38173 32.185708 18.988439
2009-07-13 11:05:46 51°27.423 3°0.139 19.1615 4.382456 32.188653 18.988439
2009-07-13 11:06:46 51°27.464 3°0.071 19.164 4.383183 32.190389 19.162559
2009-07-13 11:07:46 51°27.48 2°59.922 19.1632 4.38339 32.192093 19.127735
2009-07-13 11:08:46 51°27.39 2°59.733 19.1651 4.384013 32.192977 19.197383
2009-07-13 11:09:45 51°27.292 2°59.702 19.162 4.384636 32.200503 19.127735
2009-07-13 11:10:45 51°27.238 2°59.804 19.1581 4.385155 32.203555 19.162559
2009-07-13 11:11:46 51°27.271 2°59.851 19.1604 4.385258 32.209844 19.127735
2009-07-13 11:12:45 51°27.299 2°59.91 19.163 4.385155 32.207784 19.058087
2009-07-13 11:13:45 51°27.322 2°59.978 19.1602 4.385258 32.206219 19.092911
2009-07-13 11:14:46 51°27.341 3°0.016 19.1669 4.385362 32.207071 19.092911
2009-07-13 11:15:45 51°27.357 3°0.041 19.1647 4.385362 32.205259 18.988439
2009-07-13 11:16:46 51°27.371 3°0.051 19.1603 4.385155 32.203555 18.918791
2009-07-13 11:17:45 51°27.355 3°0.028 19.162 4.384739 32.201355 18.988439
2009-07-13 11:18:46 51°27.347 3°0.021 19.1616 4.384428 32.199404 18.988439
2009-07-13 11:19:46 51°27.364 3°0.053 19.1587 4.383805 32.197916 19.058087
2009-07-13 11:20:46 51°27.374 3°0.073 19.159 4.383494 32.195964 19.092911
2009-07-13 11:21:46 51°27.365 3°0.068 19.1535 4.383286 32.192449 19.092911
2009-07-13 11:22:46 51°27.346 3°0.044 19.1491 4.383079 32.190745 19.058087
2009-07-13 11:23:45 51°27.327 3°0.021 19.1433 4.382456 32.190464 19.127735
2009-07-13 11:24:45 51°27.312 3°0.01 19.134 4.382249 32.19601 19.301855
2009-07-13 11:25:46 51°27.311 3°0.005 19.1352 4.381834 32.199853 19.371503
2009-07-13 11:26:45 51°27.32 3°0 19.1471 4.382145 32.195157 19.232207
2009-07-13 11:27:45 51°27.331 3°0.004 19.156 4.382248 32.189364 19.058087
2009-07-13 11:28:45 51°27.338 3°0.005 19.1652 4.38256 32.184674 18.953615
2009-07-13 11:29:46 51°27.337 3°0.004 19.1758 4.382663 32.17949 18.918791
2009-07-13 11:30:46 51°27.334 3°0.002 19.1806 4.383286 32.177359 18.953615
2009-07-13 11:31:45 51°27.337 3°0.002 19.1838 4.383078 32.175053 18.918791
2009-07-13 11:32:46 51°27.345 3°0.011 19.1951 4.38339 32.172179 18.953615
2009-07-13 11:33:46 51°27.354 3°0.026 19.2025 4.383909 32.167392 18.883966
2009-07-13 11:34:46 51°27.365 3°0.045 19.2098 4.383908 32.16257 18.849142
2009-07-13 11:35:45 51°27.378 3°0.058 19.2195 4.38422 32.158496 18.988439
2009-07-13 11:36:45 51°27.383 3°0.053 19.2241 4.384635 32.155275 19.092911
2009-07-13 11:37:46 51°27.38 3°0.039 19.2281 4.384635 32.151663 19.127735
2009-07-13 11:38:45 51°27.379 3°0.026 19.2321 4.384531 32.148405 19.092911
2009-07-13 11:39:46 51°27.378 3°0.024 19.2334 4.384323 32.144297 18.953615
2009-07-13 11:40:45 51°27.38 3°0.021 19.2351 4.384531 32.144794 19.058087
2009-07-13 11:41:46 51°27.384 3°0.01 19.2419 4.384427 32.141537 19.058087
2009-07-13 11:42:46 51°27.381 2°59.988 19.2398 4.384323 32.138281 19.127735
2009-07-13 11:43:46 51°27.374 2°59.962 19.2353 4.3837 32.134984 19.092911
2009-07-13 11:44:46 51°27.361 2°59.935 19.2284 4.382974 32.130836 19.127735
2009-07-13 11:45:45 51°27.365 2°59.881 19.2322 4.38204 32.128596 19.092911
2009-07-13 11:46:46 51°27.333 2°59.767 19.2422 4.381936 32.12534 19.092911
2009-07-13 11:47:46 51°27.279 2°59.713 19.2495 4.382974 32.121818 19.197383
2009-07-13 11:48:46 51°27.234 2°59.683 19.2486 4.383285 32.121964 19.162559
2009-07-13 11:49:46 51°27.195 2°59.657 19.2354 4.383804 32.126815 19.267031
2009-07-13 11:50:45 51°27.161 2°59.632 19.249 4.3837 32.130774 19.301855
2009-07-13 11:51:46 51°27.13 2°59.607 19.2516 4.384323 32.129262 19.162559
2009-07-13 11:52:46 51°27.101 2°59.583 19.2544 4.384531 32.129159 19.127735
2009-07-13 11:53:46 51°27.075 2°59.561 19.2597 4.384842 32.128103 19.197383
2009-07-13 11:54:45 51°27.05 2°59.54 19.2641 4.385153 32.127648 19.127735
2009-07-13 11:55:45 51°27.027 2°59.521 19.2589 4.385465 32.128394 18.988439
2009-07-13 11:56:46 51°27.004 2°59.501 19.2521 4.385568 32.132249 18.849142
2009-07-13 11:57:46 51°26.982 2°59.481 19.243 4.385672 32.137306 18.814318
2009-07-13 11:58:46 51°26.96 2°59.462 19.2431 4.385776 32.142966 18.814318
2009-07-13 11:59:45 51°26.939 2°59.442 19.2425 4.386295 32.14842 18.74467
2009-07-13 12:00:45 51°26.918 2°59.422 19.2416 4.38671 32.153024 18.849142
2009-07-13 12:01:46 51°26.896 2°59.4 19.2432 4.387022 32.156778 18.779494
2009-07-13 12:02:45 51°26.875 2°59.38 19.2441 4.387333 32.157523 18.779494
2009-07-13 12:03:46 51°26.854 2°59.361 19.2451 4.387333 32.158125 18.849142
2009-07-13 12:04:46 51°26.831 2°59.344 19.2461 4.387645 32.158871 18.779494
2009-07-13 12:05:46 51°26.801 2°59.334 19.2477 4.387748 32.158517 18.74467
2009-07-13 12:06:46 51°26.772 2°59.322 19.2488 4.387852 32.158766 18.675022
2009-07-13 12:07:46 51°26.745 2°59.307 19.2513 4.38806 32.159864 18.605374
2009-07-13 12:08:45 51°26.711 2°59.329 19.2449 4.388163 32.161316 18.605374
2009-07-13 12:09:46 51°26.729 2°59.373 19.2347 4.387956 32.16443 18.709846
2009-07-13 12:10:46 51°26.788 2°59.432 19.2434 4.387645 32.166093 18.953615
2009-07-13 12:11:45 51°26.861 2°59.505 19.2314 4.387645 32.163083 19.162559
2009-07-13 12:12:46 51°26.941 2°59.575 19.2311 4.387748 32.169351 19.267031
2009-07-13 12:13:46 51°27.029 2°59.667 19.2501 4.386918 32.164956 19.475975
2009-07-13 12:14:46 51°27.127 2°59.784 19.2736 4.387125 32.147402 19.615272
2009-07-13 12:15:45 51°27.225 2°59.9 19.2963 4.387436 32.127118 20.067984
2009-07-13 12:16:46 51°27.329 3°0.013 19.299 4.38671 32.109771 20.172456
2009-07-13 12:17:45 51°27.403 3°0.082 19.299 4.384322 32.094441 20.172456
2009-07-13 12:18:46 51°27.423 3°0.088 19.2959 4.381831 32.074064 20.242105
2009-07-13 12:19:46 51°27.419 3°0.063 19.2968 4.381624 32.072966 20.381401
2009-07-13 12:20:47 51°27.39 3°0.027 19.3099 4.381208 32.06298 20.137632
2009-07-13 12:21:49 51°27.356 2°59.982 19.2729 4.380897 32.056841 20.03316
2009-07-13 12:22:47 51°27.33 2°59.947 19.2562 4.381209 32.086357 20.416225
2009-07-13 12:23:46 51°27.31 2°59.92 19.2668 4.380482 32.092411 20.381401
2009-07-13 12:24:45 51°27.292 2°59.894 19.2812 4.380482 32.079811 19.893864
2009-07-13 12:25:46 51°27.275 2°59.868 19.303 4.379444 32.061727 19.650096
2009-07-13 12:26:46 51°27.259 2°59.844 19.3114 4.381105 32.061533 19.441151
2009-07-13 12:27:46 51°27.242 2°59.817 19.3212 4.381312 32.05425 19.406327
2009-07-13 12:28:45 51°27.225 2°59.792 19.3309 4.381312 32.046471 19.232207
2009-07-13 12:29:45 51°27.208 2°59.767 19.3337 4.381415 32.04074 19.092911
2009-07-13 12:30:45 51°27.189 2°59.742 19.3474 4.381415 32.037751 19.092911
2009-07-13 12:31:46 51°27.172 2°59.717 19.3631 4.382038 32.033276 18.883966
2009-07-13 12:32:46 51°27.153 2°59.693 19.3755 4.382868 32.028708 18.74467
2009-07-13 12:33:46 51°27.135 2°59.669 19.388 4.383802 32.024395 18.675022
2009-07-13 12:34:45 51°27.116 2°59.646 19.3944 4.384632 32.024608 18.57055
2009-07-13 12:35:46 51°27.095 2°59.623 19.4057 4.385255 32.022531 18.535726
2009-07-13 12:36:45 51°27.075 2°59.599 19.4153 4.386085 32.02036 18.466078
2009-07-13 12:37:45 51°27.054 2°59.576 19.4201 4.3865 32.017785 18.361606
2009-07-13 12:38:46 51°27.033 2°59.552 19.4291 4.386708 32.015306 18.326782
2009-07-13 12:39:46 51°27.013 2°59.53 19.4402 4.38733 32.013235 18.326782
2009-07-13 12:40:46 51°26.993 2°59.507 19.4546 4.388057 32.011415 18.291958
2009-07-13 12:41:46 51°26.988 2°59.487 19.4522 4.388991 32.014862 18.257134
2009-07-13 12:42:45 51°27.02 2°59.485 19.4464 4.389614 32.016365 18.257134
2009-07-13 12:43:46 51°27.068 2°59.525 19.4269 4.390133 32.027147 18.675022
2009-07-13 12:44:46 51°27.107 2°59.595 19.4036 4.389614 32.038413 19.058087
2009-07-13 12:45:46 51°27.151 2°59.665 19.4211 4.388265 32.046497 19.371503
2009-07-13 12:46:45 51°27.192 2°59.739 19.4312 4.389199 32.033238 19.197383
2009-07-13 12:47:46 51°27.233 2°59.817 19.4492 4.38951 32.028028 19.197383
2009-07-13 12:48:46 51°27.275 2°59.89 19.4634 4.390133 32.019999 19.197383
2009-07-13 12:49:46 51°27.316 2°59.966 19.4884 4.390859 32.014014 19.092911
2009-07-13 12:50:46 51°27.354 3°0.034 19.4863 4.391793 32.010914 19.092911
2009-07-13 12:51:45 51°27.387 3°0.103 19.5015 4.392104 32.006909 19.058087
2009-07-13 12:52:46 51°27.424 3°0.168 19.5113 4.392727 32.004251 19.092911
2009-07-13 12:53:46 51°27.459 3°0.234 19.5342 4.393765 32.000816 18.953615
2009-07-13 12:54:46 51°27.471 3°0.311 19.5229 4.394906 32.000011 18.953615
2009-07-13 12:55:45 51°27.49 3°0.381 19.5302 4.393868 31.996909 19.058087
2009-07-13 12:56:46 51°27.523 3°0.446 19.533 4.393661 31.99047 18.953615
2009-07-13 12:57:45 51°27.555 3°0.514 19.5328 4.393349 31.984969 18.918791
2009-07-13 12:58:46 51°27.59 3°0.582 19.5193 4.392415 31.98093 19.092911
2009-07-13 12:59:46 51°27.641 3°0.587 19.5244 4.391066 31.974698 19.197383
2009-07-13 13:00:45 51°27.677 3°0.503 19.5439 4.390962 31.9697 19.267031
2009-07-13 13:01:45 51°27.662 3°0.379 19.553 4.392519 31.968723 19.406327
2009-07-13 13:02:45 51°27.601 3°0.267 19.5728 4.393868 31.970803 19.510799
2009-07-13 13:03:46 51°27.526 3°0.152 19.5695 4.395321 31.971356 19.580448
2009-07-13 13:04:45 51°27.445 3°0.053 19.5511 4.395321 31.975504 19.68492
2009-07-13 13:05:46 51°27.36 2°59.951 19.524 4.393764 31.978853 19.928688
2009-07-13 13:06:46 51°27.298 2°59.819 19.5476 4.392415 31.980336 19.893864
2009-07-13 13:07:46 51°27.245 2°59.677 19.5546 4.394283 31.980702 19.824216
2009-07-13 13:08:45 51°27.184 2°59.546 19.5424 4.394595 31.982048 19.824216
2009-07-13 13:09:46 51°27.099 2°59.494 19.5562 4.394595 31.984421 19.789392
2009-07-13 13:10:46 51°27.031 2°59.53 19.5747 4.396255 31.984878 19.719744
2009-07-13 13:11:46 51°27.015 2°59.602 19.5822 4.397604 31.986954 19.615272
2009-07-13 13:12:45 51°27.041 2°59.659 19.5853 4.397812 31.985085 19.475975
2009-07-13 13:13:46 51°27.091 2°59.71 19.577 4.397293 31.980867 19.301855
2009-07-13 13:14:46 51°27.146 2°59.767 19.5722 4.396151 31.97455 19.267031
2009-07-13 13:15:46 51°27.201 2°59.831 19.5723 4.395217 31.970512 19.267031
2009-07-13 13:16:46 51°27.256 2°59.896 19.5738 4.394802 31.966545 19.232207
2009-07-13 13:17:45 51°27.305 2°59.961 19.5696 4.394075 31.962417 19.162559
2009-07-13 13:18:46 51°27.351 3°0.025 19.542 4.393037 31.962274 19.197383
2009-07-13 13:19:46 51°27.39 3°0.098 19.5363 4.391584 31.959941 19.162559
2009-07-13 13:20:45 51°27.423 3°0.183 19.5193 4.39117 31.971983 19.441151
2009-07-13 13:21:45 51°27.456 3°0.272 19.5808 4.392207 31.969156 19.406327
2009-07-13 13:22:45 51°27.491 3°0.359 19.5982 4.396255 31.970062 19.336679
2009-07-13 13:23:46 51°27.519 3°0.455 19.6018 4.397396 31.964535 19.301855
2009-07-13 13:24:45 51°27.535 3°0.553 19.5673 4.395632 31.954937 19.301855
2009-07-13 13:25:46 51°27.583 3°0.594 19.5706 4.391169 31.944715 19.406327
2009-07-13 13:26:46 51°27.641 3°0.551 19.5983 4.390546 31.927816 19.301855
2009-07-13 13:27:46 51°27.669 3°0.442 19.6136 4.390753 31.915901 19.301855
2009-07-13 13:28:45 51°27.641 3°0.313 19.6409 4.392621 31.912756 19.197383
2009-07-13 13:29:46 51°27.565 3°0.234 19.6692 4.395735 31.917952 19.127735
2009-07-13 13:30:45 51°27.485 3°0.148 19.687 4.399575 31.92904 19.058087
2009-07-13 13:31:46 51°27.416 3°0.036 19.7044 4.40217 31.937692 19.127735
2009-07-13 13:32:46 51°27.362 2°59.938 19.7047 4.404038 31.94281 19.162559
2009-07-13 13:33:46 51°27.314 2°59.842 19.7128 4.40518 31.946756 19.162559
2009-07-13 13:34:45 51°27.27 2°59.75 19.7152 4.406114 31.950788 19.232207
2009-07-13 13:35:45 51°27.227 2°59.655 19.7155 4.406322 31.95365 19.127735
2009-07-13 13:36:46 51°27.155 2°59.641 19.7111 4.406944 31.955748 19.162559
2009-07-13 13:37:45 51°27.161 2°59.744 19.7071 4.406529 31.959462 19.580448
2009-07-13 13:38:46 51°27.247 2°59.848 19.7411 4.407567 31.961384 19.580448
2009-07-13 13:39:45 51°27.31 2°59.931 19.7561 4.409954 31.960087 19.615272
2009-07-13 13:40:45 51°27.348 2°59.988 19.7573 4.410888 31.959401 19.754568
2009-07-13 13:41:46 51°27.372 3°0.023 19.7661 4.410992 31.955528 19.615272
2009-07-13 13:42:46 51°27.392 3°0.051 19.7797 4.4112 31.953086 19.615272
2009-07-13 13:43:46 51°27.412 3°0.073 19.7828 4.412134 31.950049 19.475975
2009-07-13 13:44:45 51°27.415 3°0.079 19.7909 4.412445 31.946684 19.232207
2009-07-13 13:45:46 51°27.413 3°0.083 19.7879 4.412549 31.94517 19.267031
2009-07-13 13:46:46 51°27.41 3°0.082 19.7837 4.411926 31.941896 19.197383
2009-07-13 13:47:46 51°27.403 3°0.081 19.7556 4.410577 31.94098 19.127735
2009-07-13 13:48:46 51°27.395 3°0.078 19.75 4.408086 31.934354 19.127735
2009-07-13 13:49:45 51°27.386 3°0.074 19.7605 4.407463 31.930489 19.058087
2009-07-13 13:50:45 51°27.376 3°0.069 19.7647 4.407463 31.928723 18.953615
2009-07-13 13:51:46 51°27.366 3°0.065 19.7601 4.407774 31.925947 18.849142
2009-07-13 13:52:46 51°27.347 3°0.095 19.7618 4.407359 31.923763 18.779494
2009-07-13 13:53:46 51°27.243 3°0.091 19.779 4.406944 31.918638 19.023263
2009-07-13 13:54:45 51°27.076 2°59.99 19.7591 4.407566 31.908976 19.197383
2009-07-13 13:55:45 51°26.893 2°59.849 19.5838 4.403312 31.939869 19.615272
2009-07-13 13:56:46 51°26.705 2°59.709 19.4722 4.392934 31.964986 19.85904
2009-07-13 13:57:46 51°26.578 2°59.483 19.3942 4.385877 31.979965 20.207281
2009-07-13 13:58:45 51°26.487 2°59.326 19.3529 4.380999 31.988405 20.207281
2009-07-13 13:59:45 51°26.44 2°59.231 19.359 4.379547 32.000991 20.207281
2009-07-13 14:00:46 51°26.388 2°59.148 19.3642 4.379962 32.001994 20.137632
2009-07-13 14:01:46 51°26.339 2°59.1 19.3434 4.380585 32.008272 20.172456
2009-07-13 14:02:45 51°26.301 2°59.071 19.3288 4.380585 32.027978 20.276929
2009-07-13 14:03:45 51°26.269 2°59.05 19.3185 4.380274 32.033802 20.381401
2009-07-13 14:04:46 51°26.241 2°59.031 19.393 4.380793 32.039837 20.207281
2009-07-13 14:05:45 51°26.184 2°58.995 19.4703 4.387642 32.021137 19.371503
2009-07-13 14:06:45 51°26.049 2°58.932 19.4038 4.391689 32.019589 19.475975
2009-07-13 14:07:45 51°25.863 2°58.834 19.3427 4.388265 32.054259 20.311753
2009-07-13 14:08:46 51°25.695 2°58.643 19.3037 4.385463 32.064845 20.659993
2009-07-13 14:09:46 51°25.537 2°58.439 19.253 4.38536 32.099334 21.217178
2009-07-13 14:10:45 51°25.38 2°58.24 19.2141 4.38505 32.135212 21.565419
2009-07-13 14:11:46 51°25.214 2°58.04 19.2159 4.384738 32.150106 21.495771
2009-07-13 14:12:46 51°25.043 2°57.861 19.2376 4.384323 32.143695 21.32165
2009-07-13 14:13:45 51°24.873 2°57.693 19.2607 4.385049 32.132807 21.077882
2009-07-13 14:14:45 51°24.699 2°57.527 19.2915 4.388163 32.137268 20.799289
2009-07-13 14:15:46 51°24.523 2°57.357 19.3012 4.392522 32.15492 20.625169
2009-07-13 14:16:46 51°24.349 2°57.196 19.287 4.395844 32.183898 20.485873
2009-07-13 14:17:45 51°24.179 2°57.033 19.2456 4.398335 32.215719 20.659993
2009-07-13 14:18:45 51°24.005 2°56.866 19.235 4.397817 32.242809 20.590345
2009-07-13 14:19:46 51°23.829 2°56.703 19.2342 4.39844 32.247912 20.451049
2009-07-13 14:20:46 51°23.659 2°56.54 19.2091 4.399685 32.264157 20.416225
2009-07-13 14:21:45 51°23.493 2°56.381 19.202 4.398855 32.27366 20.625169
2009-07-13 14:22:46 51°23.319 2°56.218 19.216 4.398129 32.273142 21.043058
2009-07-13 14:23:46 51°23.149 2°56.06 19.2292 4.398544 32.265669 21.356474
2009-07-13 14:24:46 51°22.98 2°55.902 19.2394 4.398959 32.253976 21.565419
2009-07-13 14:25:46 51°22.812 2°55.747 19.2518 4.396779 32.233097 21.844011
2009-07-13 14:26:46 51°22.643 2°55.605 19.3653 4.393872 32.194829 22.192252
2009-07-13 14:27:46 51°22.475 2°55.467 19.5674 4.384528 32.003488 21.460946
2009-07-13 14:28:46 51°22.307 2°55.332 19.6235 4.370825 31.747633 20.590345
2009-07-13 14:29:45 51°22.144 2°55.194 19.529 4.356917 31.639495 20.276929
2009-07-13 14:30:45 51°21.979 2°55.046 19.4709 4.344359 31.599684 19.998336
2009-07-13 14:31:46 51°21.813 2°54.897 19.4619 4.33533 31.55387 19.719744
2009-07-13 14:32:46 51°21.648 2°54.752 19.4316 4.329623 31.522705 19.650096
2009-07-13 14:33:45 51°21.486 2°54.612 19.4034 4.329415 31.542127 19.580448
2009-07-13 14:34:45 51°21.318 2°54.482 19.3695 4.330142 31.569182 19.650096
2009-07-13 14:35:46 51°21.142 2°54.366 19.3632 4.329105 31.586611 19.719744
2009-07-13 14:36:46 51°20.97 2°54.253 19.3371 4.329728 31.594629 19.754568
2009-07-13 14:37:45 51°20.8 2°54.141 19.3201 4.32952 31.609436 19.68492
2009-07-13 14:38:45 51°20.628 2°54.026 19.3013 4.329521 31.627133 19.68492
2009-07-13 14:39:46 51°20.45 2°53.926 19.3031 4.332012 31.656318 19.719744
2009-07-13 14:40:45 51°20.274 2°53.839 19.2997 4.33689 31.693763 19.928688
2009-07-13 14:41:45 51°20.097 2°53.751 19.277 4.342079 31.742642 20.276929
2009-07-13 14:42:45 51°19.918 2°53.664 19.2687 4.345816 31.787994 20.555521
2009-07-13 14:43:46 51°19.736 2°53.583 19.2819 4.350279 31.824461 20.799289
2009-07-13 14:44:45 51°19.561 2°53.502 19.301 4.356194 31.864474 21.32165
2009-07-13 14:45:46 51°19.381 2°53.41 19.2992 4.362629 31.906335 22.122603
2009-07-13 14:46:46 51°19.208 2°53.298 19.3057 4.367404 31.947138 22.575316
2009-07-13 14:47:46 51°19.034 2°53.186 19.3478 4.373216 31.9827 22.853909
2009-07-13 14:48:46 51°18.862 2°53.072 19.3909 4.381623 32.014956 22.853909
2009-07-13 14:49:45 51°18.692 2°52.962 19.4673 4.392417 32.06545 22.644964
2009-07-13 14:50:45 51°18.52 2°52.85 19.5237 4.405391 32.121097 22.505668
2009-07-13 14:51:46 51°18.345 2°52.741 19.5815 4.417327 32.169381 22.401196
2009-07-13 14:52:46 51°18.176 2°52.629 19.5296 4.42833 32.238036 22.401196
2009-07-13 14:53:46 51°18.006 2°52.518 19.4861 4.429784 32.289969 22.366372
2009-07-13 14:54:46 51°17.831 2°52.43 19.4539 4.4302 32.321556 22.331548
2009-07-13 14:55:46 51°17.654 2°52.353 19.4504 4.431031 32.349372 22.644964
2009-07-13 14:56:46 51°17.471 2°52.312 19.4517 4.435494 32.385807 22.853909
2009-07-13 14:57:45 51°17.287 2°52.327 19.4735 4.442346 32.439933 23.202149
2009-07-13 14:58:46 51°17.1 2°52.406 19.4466 4.453453 32.520361 23.794158
2009-07-13 14:59:46 51°16.923 2°52.532 19.4147 4.462174 32.61341 24.07275
2009-07-13 15:00:46 51°16.747 2°52.665 19.402 4.475359 32.744362 24.037926
2009-07-13 15:01:46 51°16.57 2°52.795 19.4034 4.493008 32.897426 23.654862
2009-07-13 15:02:46 51°16.392 2°52.922 19.4143 4.515641 33.07674 23.863806
2009-07-13 15:03:46 51°16.223 2°53.052 19.5588 4.533499 33.195338 23.585214
2009-07-13 15:04:45 51°16.055 2°53.172 19.5916 4.536612 33.11365 23.89863
2009-07-13 15:05:46 51°15.885 2°53.304 19.512 4.528825 33.054335 24.386167
2009-07-13 15:06:46 51°15.717 2°53.439 19.4547 4.522389 33.060625 24.560287
2009-07-13 15:07:46 51°15.552 2°53.584 19.435 4.520417 33.082609 24.699583
2009-07-13 15:08:46 51°15.389 2°53.737 19.4374 4.519483 33.087271 24.420991
2009-07-13 15:09:46 51°15.234 2°53.919 19.4983 4.519171 33.073636 24.142399
2009-07-13 15:10:46 51°15.095 2°54.129 19.5906 4.521558 33.038482 23.794158
2009-07-13 15:11:45 51°14.954 2°54.318 19.6014 4.526956 33.018866 23.794158
2009-07-13 15:12:46 51°14.804 2°54.501 19.6645 4.524879 32.985416 23.55039
2009-07-13 15:13:46 51°14.653 2°54.68 19.6681 4.518337 32.904039 23.689686
2009-07-13 15:14:46 51°14.511 2°54.874 19.663 4.511173 32.835955 23.480742
2009-07-13 15:15:46 51°14.399 2°55.07 19.6214 4.507747 32.824444 23.376269
2009-07-13 15:16:46 51°14.29 2°55.232 19.8339 0.15665 0.883532 24.420991
2009-07-13 15:17:46 51°14.181 2°55.367 19.8938 0.114658 0.637576 24.07275
2009-07-13 15:18:45 51°14.063 2°55.461 19.9496 0.111468 0.619038 24.07275
2009-07-13 15:19:46 51°13.939 2°55.55 20.0428 0.104264 0.577185 24.037926
2009-07-13 15:20:45 51°13.828 2°55.629 20.1052 0.096751 0.533671 24.037926
2009-07-13 15:21:45 51°13.743 2°55.738 20.1858 0.091914 0.505741 24.037926
2009-07-13 15:22:46 51°13.694 2°55.842 20.2663 0.093149 0.512646 24.07275
2009-07-13 15:23:46 51°13.673 2°55.924 20.3437 0.088003 0.483095 24.107575
2009-07-13 15:24:46 51°13.664 2°55.957 20.3945 0.086151 0.472423 24.142399